Time;durP1;ratioP1;P1;durP2;ratioP2;P2;SDS_P1;SDS_P2;PMS_P1;PMS_P2;Temp;Humidity;BMP_temperature;BMP_pressure;BME280_temperature;BME280_humidity;BME280_pressure;Samples;Min_cycle;Max_cycle;Signal;HPM_P1;HPM_P2
2021/09/09 00:00:25;;;;;;;9.50;3.60;;;;;;;16.86;30.70;100292.05;26916;1220;3050050;-64
2021/09/09 00:02:57;;;;;;;5.50;2.40;;;;;;;16.84;30.78;100287.98;26893;1221;3026988;-64
2021/09/09 00:05:26;;;;;;;12.80;3.60;;;;;;;16.81;30.79;100290.27;26907;1222;3026152;-62
2021/09/09 00:07:56;;;;;;;7.70;2.70;;;;;;;16.80;30.94;100292.33;26906;1220;3026014;-64
2021/09/09 00:10:24;;;;;;;6.20;3.00;;;;;;;16.74;30.87;100289.88;26879;1221;3055741;-66
2021/09/09 00:12:56;;;;;;;7.30;3.60;;;;;;;16.72;31.21;100289.19;26887;1221;3026732;-65
2021/09/09 00:15:25;;;;;;;9.00;3.00;;;;;;;16.69;31.01;100287.45;26890;1222;3026345;-65
2021/09/09 00:18:14;;;;;;;11.80;4.00;;;;;;;16.65;31.25;100286.16;26888;1228;3056371;-62
2021/09/09 00:20:45;;;;;;;8.50;4.30;;;;;;;16.62;31.49;100283.73;26919;1225;3026431;-64
2021/09/09 00:23:15;;;;;;;9.50;4.00;;;;;;;16.59;31.83;100289.25;26932;1220;3027396;-62
2021/09/09 00:25:46;;;;;;;11.50;4.70;;;;;;;16.56;32.41;100287.16;26935;1221;3026978;-65
2021/09/09 00:28:15;;;;;;;9.20;3.90;;;;;;;16.56;32.38;100288.92;26921;1222;3026108;-67
2021/09/09 00:30:44;;;;;;;9.90;4.50;;;;;;;16.54;32.51;100289.22;26934;1222;3055012;-63
2021/09/09 00:33:14;;;;;;;10.10;4.20;;;;;;;16.55;32.59;100289.56;26921;1221;3025986;-63
2021/09/09 00:35:43;;;;;;;7.80;4.00;;;;;;;16.52;32.70;100289.38;26876;1222;3026058;-65
2021/09/09 00:38:12;;;;;;;12.50;5.20;;;;;;;16.49;32.81;100289.44;26913;1222;3054424;-66
2021/09/09 00:40:41;;;;;;;11.40;5.10;;;;;;;16.46;33.34;100292.48;26878;1223;3028043;-65
2021/09/09 00:43:18;;;;;;;14.80;5.40;;;;;;;16.42;33.46;100292.05;26893;1222;3052161;-64
2021/09/09 00:45:53;;;;;;;24.80;8.30;;;;;;;16.38;33.88;100291.48;26946;1222;3054584;-62
2021/09/09 00:48:23;;;;;;;20.30;8.00;;;;;;;16.34;34.00;100297.77;26916;1222;3026081;-66
2021/09/09 00:51:08;;;;;;;18.20;8.30;;;;;;;16.33;33.62;100290.56;26874;1222;3069352;-63
2021/09/09 00:53:38;;;;;;;26.50;11.00;;;;;;;16.30;33.96;100291.17;26942;1222;3027379;-62
2021/09/09 00:56:11;;;;;;;25.40;10.00;;;;;;;16.28;34.01;100292.70;26911;1225;3051226;-65
2021/09/09 00:58:42;;;;;;;29.40;8.90;;;;;;;16.28;33.70;100291.97;26946;1220;3027621;-63
2021/09/09 01:01:11;;;;;;;28.60;11.00;;;;;;;16.27;33.78;100290.13;26886;1222;3026356;-65
2021/09/09 01:03:40;;;;;;;64.80;22.70;;;;;;;16.25;33.47;100290.46;26882;1222;3026321;-64
2021/09/09 01:06:10;;;;;;;95.30;28.60;;;;;;;16.24;33.32;100288.73;26928;1222;3026290;-64
2021/09/09 01:08:39;;;;;;;54.90;19.80;;;;;;;16.23;33.32;100284.38;26932;1221;3048563;-69
2021/09/09 01:11:23;;;;;;;96.50;32.20;;;;;;;16.22;33.28;100290.98;26926;1222;3054189;-66
2021/09/09 01:13:59;;;;;;;54.50;18.30;;;;;;;16.23;33.20;100293.25;26882;1222;3025974;-65
2021/09/09 01:16:28;;;;;;;51.30;18.40;;;;;;;16.26;33.22;100293.57;26889;1222;3055441;-67
2021/09/09 01:18:58;;;;;;;21.10;9.00;;;;;;;16.26;32.97;100289.50;26933;1222;3027794;-63
2021/09/09 01:21:47;;;;;;;29.10;9.00;;;;;;;16.25;33.27;100289.39;26910;1222;3057219;-66
2021/09/09 01:24:21;;;;;;;15.30;7.30;;;;;;;16.24;33.19;100282.70;26892;1222;3026059;-64
2021/09/09 01:26:52;;;;;;;19.60;7.60;;;;;;;16.23;33.47;100283.71;26902;1222;3049041;-65
2021/09/09 01:29:27;;;;;;;31.10;10.20;;;;;;;16.21;33.45;100285.21;26919;1223;3026027;-66
2021/09/09 01:31:56;;;;;;;28.30;9.50;;;;;;;16.21;33.51;100280.48;26912;1222;3049950;-64
2021/09/09 01:34:26;;;;;;;20.00;6.80;;;;;;;16.19;33.67;100279.91;26903;1221;3025984;-65
2021/09/09 01:36:54;;;;;;;18.50;6.00;;;;;;;16.20;33.49;100278.92;26894;1221;3026745;-63
2021/09/09 01:39:24;;;;;;;12.60;5.30;;;;;;;16.20;33.62;100273.85;26961;1222;3026538;-63
2021/09/09 01:41:54;;;;;;;14.60;5.80;;;;;;;16.22;33.40;100272.98;26909;1222;3070452;-67
2021/09/09 01:44:23;;;;;;;17.60;6.50;;;;;;;16.22;33.35;100269.05;26909;1222;3026343;-67
2021/09/09 01:46:53;;;;;;;15.90;6.00;;;;;;;16.24;33.33;100264.84;26873;1222;3026836;-63
2021/09/09 01:49:22;;;;;;;19.50;6.20;;;;;;;16.26;33.35;100266.31;26882;1229;3027564;-64
2021/09/09 01:51:51;;;;;;;22.10;6.60;;;;;;;16.28;33.26;100264.42;26889;1222;3048531;-64
2021/09/09 01:54:20;;;;;;;18.10;7.70;;;;;;;16.29;33.44;100259.21;26886;1221;3025959;-68
2021/09/09 01:56:49;;;;;;;20.40;8.30;;;;;;;16.26;33.49;100256.41;26881;1224;3067191;-66
2021/09/09 01:59:19;;;;;;;32.10;11.80;;;;;;;16.22;33.88;100254.95;26862;1222;3026327;-65
2021/09/09 02:01:48;;;;;;;21.30;8.60;;;;;;;16.17;34.40;100252.67;26920;1222;3026426;-65
2021/09/09 02:04:17;;;;;;;12.80;5.50;;;;;;;16.08;34.81;100245.14;26865;1221;3067890;-65
2021/09/09 02:06:45;;;;;;;16.90;5.20;;;;;;;16.08;34.77;100247.07;26886;1228;3026574;-68
2021/09/09 02:09:14;;;;;;;11.70;4.70;;;;;;;16.04;34.89;100246.14;26889;1222;3052893;-66
2021/09/09 02:11:43;;;;;;;13.40;4.90;;;;;;;16.04;34.84;100248.77;26890;1222;3026374;-66
2021/09/09 02:14:12;;;;;;;16.70;5.50;;;;;;;16.07;34.71;100251.95;26894;1222;3054065;-66
2021/09/09 02:17:01;;;;;;;11.80;5.00;;;;;;;16.06;34.86;100251.48;26875;1222;3051381;-65
2021/09/09 02:19:30;;;;;;;11.00;4.80;;;;;;;16.05;34.72;100253.52;26870;1222;3028812;-66
2021/09/09 02:21:59;;;;;;;18.90;6.70;;;;;;;15.98;35.56;100257.39;26893;1229;3054423;-68
2021/09/09 02:24:31;;;;;;;11.80;5.00;;;;;;;15.91;35.67;100260.14;26932;1222;3026573;-66
2021/09/09 02:27:00;;;;;;;14.60;4.90;;;;;;;15.86;35.58;100260.30;26899;1222;3027741;-63
2021/09/09 02:29:29;;;;;;;16.90;5.60;;;;;;;15.77;36.10;100262.18;26894;1227;3054919;-63
2021/09/09 02:31:58;;;;;;;20.10;6.80;;;;;;;15.61;36.54;100260.74;26898;1229;3026588;-68
2021/09/09 02:34:27;;;;;;;16.50;6.30;;;;;;;15.48;37.63;100258.31;26851;1222;3048878;-66
2021/09/09 02:36:56;;;;;;;19.00;7.80;;;;;;;15.29;38.56;100255.00;26906;1222;3026417;-63
2021/09/09 02:39:25;;;;;;;28.00;8.80;;;;;;;15.16;38.92;100252.38;26920;1224;3058338;-62
2021/09/09 02:41:54;;;;;;;14.90;6.20;;;;;;;15.16;38.26;100251.29;26968;1222;3025736;-63
2021/09/09 02:44:23;;;;;;;13.80;4.50;;;;;;;15.16;37.73;100249.70;26926;1222;3052038;-66
2021/09/09 02:46:52;;;;;;;17.30;5.60;;;;;;;15.16;37.95;100251.65;26876;1222;3026580;-67
2021/09/09 02:49:22;;;;;;;16.20;5.90;;;;;;;15.11;38.29;100256.39;26884;1227;3026825;-64
2021/09/09 02:52:00;;;;;;;18.60;5.30;;;;;;;15.06;38.01;100258.27;26908;1223;3055190;-67
2021/09/09 02:54:29;;;;;;;11.10;4.20;;;;;;;15.04;37.84;100255.11;26931;1221;3026762;-63
2021/09/09 02:56:58;;;;;;;10.50;4.80;;;;;;;15.07;37.43;100255.06;26907;1222;3049755;-63
2021/09/09 02:59:27;;;;;;;7.90;3.60;;;;;;;15.12;37.43;100253.98;26965;1222;3027881;-66
2021/09/09 03:01:56;;;;;;;13.30;4.00;;;;;;;15.08;37.59;100260.28;26919;1221;3026703;-66
2021/09/09 03:04:25;;;;;;;13.50;4.80;;;;;;;15.10;37.24;100256.84;26943;1221;3053136;-63
2021/09/09 03:06:54;;;;;;;14.90;6.00;;;;;;;15.05;37.63;100256.58;26907;1222;3025886;-68
2021/09/09 03:09:23;;;;;;;8.60;3.50;;;;;;;15.01;37.58;100257.57;26934;1221;3054738;-62
2021/09/09 03:11:52;;;;;;;8.50;3.30;;;;;;;14.96;37.65;100263.55;26887;1228;3026560;-66
2021/09/09 03:14:22;;;;;;;9.70;4.00;;;;;;;14.99;37.26;100265.98;26915;1220;3025919;-65
2021/09/09 03:16:52;;;;;;;11.70;3.90;;;;;;;14.98;37.36;100269.75;26882;1220;3025857;-68
2021/09/09 03:19:21;;;;;;;14.30;4.90;;;;;;;14.94;37.76;100275.98;26897;1228;3025778;-69
2021/09/09 03:21:50;;;;;;;10.50;5.10;;;;;;;14.88;37.99;100276.20;26950;1222;3026048;-62
2021/09/09 03:24:18;;;;;;;7.70;4.30;;;;;;;14.93;37.61;100274.52;26920;1221;3052651;-63
2021/09/09 03:26:49;;;;;;;13.00;3.60;;;;;;;14.88;37.92;100276.27;26889;1228;3027050;-65
2021/09/09 03:29:18;;;;;;;8.70;3.80;;;;;;;14.86;38.10;100278.16;26940;1220;3025923;-63
2021/09/09 03:31:48;;;;;;;9.70;3.90;;;;;;;14.86;38.03;100277.44;26912;1223;3026363;-69
2021/09/09 03:34:16;;;;;;;8.20;3.60;;;;;;;14.85;38.05;100280.13;26902;1222;3026280;-64
2021/09/09 03:36:46;;;;;;;6.50;3.60;;;;;;;14.90;38.27;100279.31;26907;1221;3048125;-65
2021/09/09 03:39:15;;;;;;;7.50;3.30;;;;;;;14.91;38.13;100280.29;26917;1221;3026867;-69
2021/09/09 03:41:44;;;;;;;10.10;3.40;;;;;;;14.91;38.20;100284.14;26852;1222;3067464;-63
2021/09/09 03:44:13;;;;;;;8.10;3.70;;;;;;;14.92;38.24;100286.36;26943;1221;3026151;-68
2021/09/09 03:46:42;;;;;;;7.40;3.20;;;;;;;14.94;38.32;100288.73;26894;1222;3052934;-67
2021/09/09 03:49:11;;;;;;;6.80;3.40;;;;;;;14.95;38.23;100289.58;26900;1222;3025891;-69
2021/09/09 03:51:57;;;;;;;8.80;3.40;;;;;;;15.02;38.19;100290.33;26881;1221;3055498;-66
2021/09/09 03:54:26;;;;;;;10.40;2.80;;;;;;;15.02;38.16;100291.06;26930;1220;3025773;-62
2021/09/09 03:56:55;;;;;;;9.70;3.20;;;;;;;15.04;38.36;100290.51;26910;1228;3051236;-62
2021/09/09 03:59:24;;;;;;;10.40;3.30;;;;;;;15.04;37.96;100288.80;26935;1222;3026002;-67
2021/09/09 04:01:53;;;;;;;11.80;3.40;;;;;;;15.08;37.80;100288.48;26915;1221;3058177;-69
2021/09/09 04:04:23;;;;;;;8.30;3.10;;;;;;;15.13;37.97;100285.55;26927;1220;3026630;-65
2021/09/09 04:06:56;;;;;;;7.50;3.10;;;;;;;15.21;37.60;100284.69;26885;1228;3027037;-65
2021/09/09 04:09:25;;;;;;;9.70;3.30;;;;;;;15.27;37.54;100280.70;26947;1221;3026156;-67
2021/09/09 04:11:54;;;;;;;10.90;3.50;;;;;;;15.37;37.37;100282.16;26886;1221;3025742;-66
2021/09/09 04:14:43;;;;;;;9.30;3.40;;;;;;;15.43;37.34;100285.27;26936;1222;3052965;-65
2021/09/09 04:17:12;;;;;;;12.10;3.00;;;;;;;15.49;37.11;100284.17;26910;1221;3026402;-66
2021/09/09 04:19:41;;;;;;;12.90;3.70;;;;;;;15.56;37.05;100282.98;26895;1220;3029312;-63
2021/09/09 04:22:30;;;;;;;14.40;3.40;;;;;;;15.57;37.26;100285.80;26910;1222;3053697;-64
2021/09/09 04:25:02;;;;;;;6.80;3.30;;;;;;;15.62;37.15;100287.02;26894;1221;3026286;-65
2021/09/09 04:27:32;;;;;;;5.90;3.10;;;;;;;15.69;36.78;100288.52;26929;1220;3026915;-68
2021/09/09 04:30:02;;;;;;;11.90;3.50;;;;;;;15.76;36.10;100287.98;26933;1221;3026110;-63
2021/09/09 04:32:34;;;;;;;7.90;3.40;;;;;;;15.85;36.16;100290.92;26925;1220;3026087;-68
2021/09/09 04:35:03;;;;;;;7.60;3.50;;;;;;;15.95;35.79;100289.38;26929;1221;3026090;-67
2021/09/09 04:37:35;;;;;;;11.80;3.30;;;;;;;16.04;36.85;100289.06;26917;1221;3048401;-66
2021/09/09 04:40:05;;;;;;;10.20;3.90;;;;;;;16.12;38.40;100294.73;26914;1222;3026478;-66
2021/09/09 04:42:34;;;;;;;12.50;5.00;;;;;;;16.14;40.32;100295.86;26900;1221;3026741;-66
2021/09/09 04:45:04;;;;;;;16.50;5.50;;;;;;;16.15;40.03;100299.12;26907;1222;3025707;-64
2021/09/09 04:47:34;;;;;;;15.80;5.90;;;;;;;16.16;42.10;100302.77;26944;1220;3054182;-67
2021/09/09 04:50:23;;;;;;;26.00;7.30;;;;;;;16.15;43.06;100302.63;26896;1223;3052503;-64
2021/09/09 04:52:52;;;;;;;28.10;12.50;;;;;;;16.19;40.03;100303.27;26937;1220;3026595;-65
2021/09/09 04:55:21;;;;;;;36.30;15.80;;;;;;;16.24;40.46;100302.86;26906;1221;3050126;-65
2021/09/09 04:57:50;;;;;;;24.50;8.60;;;;;;;16.29;40.12;100297.95;26891;1228;3026739;-63
2021/09/09 05:00:19;;;;;;;18.40;5.90;;;;;;;16.32;39.76;100296.86;26911;1227;3048203;-66
2021/09/09 05:02:48;;;;;;;21.10;8.30;;;;;;;16.34;39.98;100296.50;26914;1220;3029071;-66
2021/09/09 05:05:17;;;;;;;23.90;6.20;;;;;;;16.41;39.75;100297.41;26957;1220;3068709;-69
2021/09/09 05:07:46;;;;;;;22.30;7.10;;;;;;;16.46;41.19;100294.23;26938;1220;3028850;-66
2021/09/09 05:10:16;;;;;;;30.70;9.20;;;;;;;16.51;41.59;100293.88;26891;1221;3053283;-65
2021/09/09 05:12:45;;;;;;;23.40;6.80;;;;;;;16.55;41.56;100289.18;26899;1220;3026872;-67
2021/09/09 05:15:15;;;;;;;17.70;5.20;;;;;;;16.63;39.67;100282.95;26906;1221;3054857;-68
2021/09/09 05:17:44;;;;;;;28.70;6.00;;;;;;;16.71;39.26;100280.23;26943;1222;3026228;-67
2021/09/09 05:20:13;;;;;;;14.60;5.10;;;;;;;16.80;38.99;100282.04;26954;1220;3050446;-71
2021/09/09 05:22:44;;;;;;;16.40;5.50;;;;;;;16.89;38.45;100273.83;26945;1220;3026812;-69
2021/09/09 05:25:13;;;;;;;18.50;4.70;;;;;;;16.96;37.94;100274.77;26926;1220;3026337;-63
2021/09/09 05:27:41;;;;;;;19.40;4.90;;;;;;;17.03;37.06;100272.95;26918;1228;3048568;-67
2021/09/09 05:30:29;;;;;;;19.90;6.40;;;;;;;17.14;36.71;100271.81;26932;1222;3055587;-65
2021/09/09 05:32:58;;;;;;;27.30;6.40;;;;;;;17.24;37.26;100270.83;26945;1220;3026040;-65
2021/09/09 05:35:27;;;;;;;32.30;10.20;;;;;;;17.32;36.50;100270.23;26909;1221;3048311;-62
2021/09/09 05:37:56;;;;;;;33.80;10.20;;;;;;;17.44;36.30;100270.23;26907;1222;3026080;-69
2021/09/09 05:40:25;;;;;;;28.10;9.90;;;;;;;17.53;37.00;100269.40;26936;1220;3026391;-67
2021/09/09 05:42:54;;;;;;;34.70;10.90;;;;;;;17.59;36.92;100269.98;26874;1220;3050088;-65
2021/09/09 05:45:23;;;;;;;28.00;11.80;;;;;;;17.68;37.83;100264.89;26922;1221;3026252;-67
2021/09/09 05:47:52;;;;;;;28.80;12.30;;;;;;;17.75;38.82;100264.97;26903;1220;3057141;-67
2021/09/09 05:50:33;;;;;;;33.30;12.80;;;;;;;17.85;39.27;100268.66;26879;1222;3050830;-66
2021/09/09 05:53:02;;;;;;;34.50;13.00;;;;;;;17.90;39.65;100268.09;26889;1221;3026465;-65
2021/09/09 05:55:31;;;;;;;43.60;14.10;;;;;;;17.96;39.78;100269.09;26942;1221;3057472;-67
2021/09/09 05:58:00;;;;;;;30.40;13.00;;;;;;;18.03;40.00;100268.03;26930;1225;3025657;-69
2021/09/09 06:00:31;;;;;;;30.80;12.60;;;;;;;18.09;40.05;100270.34;26928;1221;3051770;-63
2021/09/09 06:03:01;;;;;;;26.70;11.00;;;;;;;18.14;39.70;100266.23;26908;1221;3026517;-66
2021/09/09 06:05:33;;;;;;;27.00;9.30;;;;;;;18.20;39.14;100268.73;26903;1221;3026387;-66
2021/09/09 06:08:04;;;;;;;27.80;10.30;;;;;;;18.27;38.78;100266.23;26907;1227;3025793;-66
2021/09/09 06:10:33;;;;;;;23.20;9.10;;;;;;;18.33;38.15;100265.45;26937;1220;3026611;-68
2021/09/09 06:13:02;;;;;;;27.60;8.60;;;;;;;18.38;38.26;100266.25;26925;1227;3025742;-63
2021/09/09 06:15:31;;;;;;;27.00;8.90;;;;;;;18.44;37.81;100267.53;26913;1220;3026148;-65
2021/09/09 06:18:03;;;;;;;17.30;7.80;;;;;;;18.54;38.10;100268.16;26893;1228;3053785;-70
2021/09/09 06:20:32;;;;;;;26.10;9.00;;;;;;;18.63;38.51;100267.63;26904;1225;3025921;-64
2021/09/09 06:23:00;;;;;;;34.30;9.10;;;;;;;18.70;38.32;100272.39;26954;1220;3051647;-65
2021/09/09 06:25:29;;;;;;;31.50;8.80;;;;;;;18.76;37.49;100273.33;26914;1225;3027502;-68
2021/09/09 06:27:58;;;;;;;26.50;8.40;;;;;;;18.81;37.75;100272.41;26964;1221;3048989;-65
2021/09/09 06:30:27;;;;;;;22.40;8.00;;;;;;;18.91;37.96;100271.89;26930;1221;3028734;-62
2021/09/09 06:32:56;;;;;;;24.30;8.10;;;;;;;19.02;37.55;100270.29;26924;1221;3057821;-65
2021/09/09 06:35:25;;;;;;;24.00;8.20;;;;;;;19.09;37.35;100268.46;26878;1221;3026386;-66
2021/09/09 06:37:56;;;;;;;27.50;7.70;;;;;;;19.08;37.79;100272.44;26900;1220;3053198;-63
2021/09/09 06:40:26;;;;;;;30.70;8.00;;;;;;;19.16;37.32;100270.77;26939;1222;3026776;-65
2021/09/09 06:42:55;;;;;;;37.80;9.80;;;;;;;19.21;37.63;100270.16;26950;1220;3026020;-65
2021/09/09 06:45:24;;;;;;;25.30;8.70;;;;;;;19.28;38.24;100269.18;26911;1220;3051448;-62
2021/09/09 06:47:53;;;;;;;24.00;7.90;;;;;;;19.34;37.68;100273.66;26919;1226;3027769;-62
2021/09/09 06:50:22;;;;;;;30.10;8.60;;;;;;;19.44;37.63;100276.00;26894;1221;3051579;-64
2021/09/09 06:52:51;;;;;;;19.90;7.60;;;;;;;19.53;37.09;100274.70;26896;1227;3026219;-61
2021/09/09 06:55:20;;;;;;;18.60;7.30;;;;;;;19.63;36.75;100274.06;26880;1224;3026161;-66
2021/09/09 06:57:49;;;;;;;21.10;6.80;;;;;;;19.71;36.84;100273.87;26898;1220;3050368;-64
2021/09/09 07:00:18;;;;;;;17.80;6.80;;;;;;;19.84;36.56;100272.86;26923;1223;3026152;-67
2021/09/09 07:02:46;;;;;;;16.30;6.70;;;;;;;19.91;35.98;100273.83;26957;1220;3050313;-67
2021/09/09 07:05:15;;;;;;;18.90;6.30;;;;;;;19.94;35.47;100273.59;26912;1221;3027951;-67
2021/09/09 07:07:45;;;;;;;22.80;5.90;;;;;;;19.90;35.05;100275.20;26915;1226;3070172;-67
2021/09/09 07:10:13;;;;;;;17.30;5.90;;;;;;;19.96;34.98;100273.56;26933;1225;3028219;-63
2021/09/09 07:12:42;;;;;;;25.80;6.10;;;;;;;20.04;34.81;100270.34;26928;1223;3049863;-64
2021/09/09 07:15:12;;;;;;;22.70;6.50;;;;;;;20.14;34.87;100271.52;26917;1228;3026025;-63
2021/09/09 07:17:51;;;;;;;23.60;6.30;;;;;;;20.20;34.88;100272.54;26908;1225;3051058;-65
2021/09/09 07:20:20;;;;;;;21.50;6.60;;;;;;;20.28;35.20;100273.98;26916;1222;3026049;-67
2021/09/09 07:22:49;;;;;;;20.40;6.40;;;;;;;20.40;35.28;100275.02;26911;1224;3070329;-63
2021/09/09 07:25:19;;;;;;;16.00;5.80;;;;;;;20.51;34.97;100275.67;26916;1226;3026300;-65
2021/09/09 07:27:48;;;;;;;20.10;6.00;;;;;;;20.58;33.68;100274.30;26931;1221;3026222;-67
2021/09/09 07:30:17;;;;;;;20.20;6.10;;;;;;;20.64;33.43;100273.94;26907;1228;3067922;-63
2021/09/09 07:32:46;;;;;;;16.00;6.00;;;;;;;20.72;34.07;100275.95;26892;1230;3028859;-65
2021/09/09 07:35:15;;;;;;;18.30;5.80;;;;;;;20.80;34.28;100278.45;26931;1225;3026567;-65
2021/09/09 07:37:46;;;;;;;14.30;6.70;;;;;;;20.87;34.54;100275.15;26876;1221;3069820;-66
2021/09/09 07:40:15;;;;;;;19.30;6.00;;;;;;;20.91;35.27;100272.44;26897;1225;3026057;-66
2021/09/09 07:42:44;;;;;;;24.30;6.10;;;;;;;20.95;34.99;100274.02;26963;1221;3026582;-65
2021/09/09 07:45:13;;;;;;;16.00;6.30;;;;;;;20.97;34.83;100269.27;26901;1226;3069709;-64
2021/09/09 07:47:42;;;;;;;17.00;5.60;;;;;;;20.92;34.99;100273.42;26890;1225;3027706;-62
2021/09/09 07:50:11;;;;;;;17.60;6.30;;;;;;;20.97;34.65;100271.17;26883;1224;3050050;-63
2021/09/09 07:52:40;;;;;;;31.10;6.60;;;;;;;21.09;33.71;100269.54;26890;1221;3027021;-68
2021/09/09 07:55:16;;;;;;;22.80;6.30;;;;;;;21.17;33.41;100263.02;26893;1229;3056422;-66
2021/09/09 07:57:45;;;;;;;17.00;5.50;;;;;;;21.28;33.12;100263.55;26917;1224;3026381;-62
2021/09/09 08:00:15;;;;;;;16.20;6.00;;;;;;;21.39;32.77;100262.48;26888;1228;3026563;-64
2021/09/09 08:02:44;;;;;;;21.20;5.50;;;;;;;21.35;32.42;100262.76;26905;1225;3054212;-64
2021/09/09 08:05:13;;;;;;;14.60;5.60;;;;;;;21.40;32.19;100261.01;26930;1222;3027216;-65
2021/09/09 08:07:45;;;;;;;18.00;6.30;;;;;;;21.54;32.71;100263.51;26977;1221;3048331;-68
2021/09/09 08:10:16;;;;;;;19.60;6.20;;;;;;;21.58;33.49;100265.58;26968;1227;3026222;-66
2021/09/09 08:12:46;;;;;;;16.30;6.10;;;;;;;21.52;33.53;100257.95;26947;1222;3026317;-68
2021/09/09 08:15:16;;;;;;;16.80;5.50;;;;;;;21.62;33.16;100255.77;26949;1220;3028371;-64
2021/09/09 08:17:46;;;;;;;12.90;4.90;;;;;;;21.71;32.75;100256.84;26913;1225;3026140;-66
2021/09/09 08:20:20;;;;;;;30.80;5.60;;;;;;;21.72;32.75;100252.52;26931;1225;3055001;-65
2021/09/09 08:23:09;;;;;;;12.80;4.70;;;;;;;21.85;32.64;100250.59;26941;1224;3051595;-61
2021/09/09 08:25:38;;;;;;;11.80;4.80;;;;;;;21.97;32.72;100252.82;26985;1225;3025693;-68
2021/09/09 08:28:07;;;;;;;14.60;4.80;;;;;;;22.08;32.69;100248.14;26963;1219;3051116;-67
2021/09/09 08:30:36;;;;;;;12.80;4.30;;;;;;;22.15;31.78;100245.24;26973;1224;3026103;-69
2021/09/09 08:33:05;;;;;;;18.30;4.40;;;;;;;22.13;31.35;100237.19;26941;1225;3047895;-71
2021/09/09 08:35:34;;;;;;;13.70;4.30;;;;;;;22.20;31.26;100235.63;27020;1223;3026701;-65
2021/09/09 08:38:03;;;;;;;20.70;5.00;;;;;;;22.33;31.06;100238.99;26960;1225;3070351;-65
2021/09/09 08:40:36;;;;;;;13.40;4.40;;;;;;;22.32;30.28;100235.13;27058;1225;3026412;-63
2021/09/09 08:43:05;;;;;;;10.90;4.30;;;;;;;22.31;29.99;100231.92;26986;1223;3050832;-63
2021/09/09 08:45:34;;;;;;;11.10;4.00;;;;;;;22.27;30.23;100234.70;26957;1222;3026339;-67
2021/09/09 08:48:18;;;;;;;;;;;;;;;22.42;30.28;100232.90;26925;1225;3053675;-67
2021/09/09 08:50:47;;;;;;;18.60;4.50;;;;;;;22.48;30.48;100227.86;26954;1222;3027558;-69
2021/09/09 08:53:16;;;;;;;11.10;3.90;;;;;;;22.63;30.11;100228.34;26954;1226;3048700;-65
2021/09/09 08:55:45;;;;;;;12.40;4.40;;;;;;;22.81;29.90;100226.60;26901;1225;3026349;-67
2021/09/09 08:58:15;;;;;;;12.50;4.10;;;;;;;22.87;29.26;100219.45;26921;1225;3025949;-69
2021/09/09 09:01:12;;;;;;;13.60;4.50;;;;;;;22.97;28.69;100214.13;26946;1225;3049554;-66
2021/09/09 09:03:45;;;;;;;9.60;4.70;;;;;;;23.05;28.67;100209.91;26934;1221;3054767;-67
2021/09/09 09:06:26;;;;;;;11.00;4.10;;;;;;;23.08;28.52;100208.85;26962;1224;3026778;-68
2021/09/09 09:09:01;;;;;;;14.90;5.00;;;;;;;23.15;28.54;100206.41;26917;1226;3069323;-66
2021/09/09 09:11:31;;;;;;;;;;;;;;;23.22;29.00;100204.13;26997;1219;3048430;-63
2021/09/09 09:14:00;;;;;;;12.10;4.50;;;;;;;23.23;28.37;100200.32;26872;1226;3025975;-66
2021/09/09 09:16:51;;;;;;;11.20;4.30;;;;;;;23.27;28.33;100194.98;26938;1223;3055136;-66
2021/09/09 09:19:25;;;;;;;12.90;4.30;;;;;;;23.37;28.23;100195.27;26942;1219;3027329;-64
2021/09/09 09:21:56;;;;;;;;;;;;;;;23.50;27.85;100193.39;26879;1225;3049204;-68
2021/09/09 09:24:32;;;;;;;12.00;5.10;;;;;;;23.54;28.50;100192.81;26947;1221;3026429;-63
2021/09/09 09:27:04;;;;;;;13.60;5.50;;;;;;;23.59;28.06;100193.83;27008;1226;3050815;-70
2021/09/09 09:29:34;;;;;;;12.20;4.40;;;;;;;23.52;27.20;100189.59;26916;1225;3026402;-67
2021/09/09 09:32:16;;;;;;;9.10;4.20;;;;;;;23.48;27.73;100192.18;26986;1219;3027114;-64
2021/09/09 09:34:46;;;;;;;12.80;4.80;;;;;;;23.44;27.21;100189.88;26923;1225;3053206;-68
2021/09/09 09:37:21;;;;;;;14.00;5.00;;;;;;;23.40;26.84;100190.10;26891;1225;3026734;-65
2021/09/09 09:39:50;;;;;;;16.30;6.20;;;;;;;23.45;26.68;100183.88;26893;1221;3054937;-62
2021/09/09 09:42:25;;;;;;;18.10;6.00;;;;;;;23.39;26.82;100183.92;26871;1229;3026139;-65
2021/09/09 09:44:53;;;;;;;15.00;6.00;;;;;;;23.43;26.70;100183.34;26893;1221;3049796;-65
2021/09/09 09:47:22;;;;;;;18.60;4.80;;;;;;;23.50;26.98;100176.17;26803;1229;3029588;-67
2021/09/09 09:49:55;;;;;;;18.80;5.00;;;;;;;23.63;27.81;100178.27;26923;1229;3057150;-66
2021/09/09 09:52:29;;;;;;;16.70;5.20;;;;;;;23.70;28.02;100176.20;26916;1226;3026519;-62
2021/09/09 09:55:00;;;;;;;15.60;5.50;;;;;;;23.91;27.71;100173.24;26908;1228;3052037;-61
2021/09/09 09:57:29;;;;;;;13.40;5.60;;;;;;;24.00;27.81;100168.32;26915;1225;3026298;-68
2021/09/09 09:59:59;;;;;;;8.40;4.90;;;;;;;24.04;27.54;100170.48;26926;1225;3026374;-69
2021/09/09 10:02:28;;;;;;;15.90;5.30;;;;;;;23.88;27.26;100169.91;26946;1225;3026211;-65
2021/09/09 10:04:57;;;;;;;19.80;5.30;;;;;;;24.06;26.09;100163.34;26952;1225;3025928;-66
2021/09/09 10:07:26;;;;;;;14.60;4.70;;;;;;;24.27;26.41;100164.21;26893;1225;3067409;-66
2021/09/09 10:09:55;;;;;;;13.70;4.70;;;;;;;24.39;27.24;100158.08;26942;1223;3026919;-65
2021/09/09 10:12:26;;;;;;;14.60;4.80;;;;;;;24.29;26.64;100157.53;26893;1223;3052724;-69
2021/09/09 10:15:05;;;;;;;12.90;5.20;;;;;;;24.16;26.00;100157.70;26897;1225;3070725;-64
2021/09/09 10:17:34;;;;;;;12.90;5.10;;;;;;;24.26;25.77;100152.20;26922;1222;3026399;-62
2021/09/09 10:20:37;;;;;;;11.50;5.20;;;;;;;24.38;25.51;100143.45;26962;1228;3027034;-64
2021/09/09 10:23:14;;;;;;;13.40;4.00;;;;;;;24.46;25.55;100138.33;26962;1225;3052602;-65
2021/09/09 10:25:43;;;;;;;13.80;5.50;;;;;;;24.55;26.68;100137.70;26930;1225;3055317;-64
2021/09/09 10:28:45;;;;;;;17.60;6.00;;;;;;;24.61;26.71;100131.19;26903;1222;3027027;-65
2021/09/09 10:31:15;;;;;;;10.20;4.90;;;;;;;24.73;26.50;100132.97;26951;1227;3054676;-65
2021/09/09 10:33:48;;;;;;;12.70;4.40;;;;;;;24.87;25.75;100131.75;26988;1225;3026949;-66
2021/09/09 10:36:45;;;;;;;17.10;6.20;;;;;;;24.84;25.57;100125.30;27239;1222;3026305;-65
2021/09/09 10:39:41;;;;;;;13.60;5.10;;;;;;;24.74;25.17;100123.73;27048;1225;3052463;-65
2021/09/09 10:42:32;;;;;;;12.70;5.00;;;;;;;24.88;25.23;100118.72;27782;1225;3051229;-68
2021/09/09 10:45:02;;;;;;;12.50;5.10;;;;;;;25.06;25.93;100115.73;26949;1225;3071152;-63
2021/09/09 10:47:48;;;;;;;14.40;4.70;;;;;;;25.10;25.93;100113.89;27007;1224;3027780;-64
2021/09/09 10:50:23;;;;;;;13.90;4.50;;;;;;;25.21;26.18;100111.64;26925;1221;3051471;-66
2021/09/09 10:53:04;;;;;;;21.70;4.30;;;;;;;25.23;25.81;100114.08;26929;1224;3052306;-69
2021/09/09 10:55:40;;;;;;;17.30;4.90;;;;;;;24.91;25.56;100099.92;26956;1225;3055997;-66
2021/09/09 10:58:15;;;;;;;14.10;4.70;;;;;;;25.08;25.92;100101.45;26913;1225;3049451;-67
2021/09/09 11:00:50;;;;;;;17.30;5.30;;;;;;;25.15;25.91;100095.16;26942;1229;3055564;-67
2021/09/09 11:03:38;;;;;;;14.20;5.10;;;;;;;25.00;25.94;100092.19;26937;1225;3050559;-63
2021/09/09 11:06:10;;;;;;;15.60;5.70;;;;;;;24.98;25.49;100086.27;26945;1226;3068783;-68
2021/09/09 11:08:40;;;;;;;15.30;5.30;;;;;;;25.08;25.26;100087.09;26899;1222;3026913;-67
2021/09/09 11:11:21;;;;;;;14.50;5.90;;;;;;;25.15;25.17;100081.71;26961;1225;3025511;-67
2021/09/09 11:14:08;;;;;;;10.60;4.90;;;;;;;25.31;25.60;100078.98;26916;1229;3055272;-66
2021/09/09 11:16:57;;;;;;;16.50;6.50;;;;;;;25.42;25.59;100076.12;26921;1220;3056292;-64
2021/09/09 11:19:26;;;;;;;17.70;6.00;;;;;;;25.42;25.99;100071.15;26923;1222;3026938;-65
2021/09/09 11:21:59;;;;;;;18.30;5.60;;;;;;;25.54;26.40;100070.12;26900;1221;3026152;-66